Time;durP1;ratioP1;P1;durP2;ratioP2;P2;SDS_P1;SDS_P2;PMS_P1;PMS_P2;Temp;Humidity;BMP_temperature;BMP_pressure;BME280_temperature;BME280_humidity;BME280_pressure;Samples;Min_cycle;Max_cycle;Signal;HPM_P1;HPM_P2
2023/05/05 00:01:07;;;;;;;5.43;2.13;;;;;;;9.39;92.04;100935.84;5125010;28;20122;-72
2023/05/05 00:03:38;;;;;;;4.07;2.10;;;;;;;9.47;91.37;100933.88;5128326;28;20042;-71
2023/05/05 00:06:08;;;;;;;3.58;1.98;;;;;;;9.33;91.08;100933.38;5122481;28;20038;-72
2023/05/05 00:08:39;;;;;;;3.17;1.90;;;;;;;9.20;90.98;100929.38;5128410;28;20034;-70
2023/05/05 00:11:09;;;;;;;3.03;1.92;;;;;;;8.92;93.38;100924.00;5110141;28;20094;-69
2023/05/05 00:13:39;;;;;;;2.92;1.88;;;;;;;9.09;93.43;100930.50;5119002;28;20027;-70
2023/05/05 00:16:09;;;;;;;3.25;1.95;;;;;;;8.83;93.03;100930.28;5120213;28;20027;-71
2023/05/05 00:18:40;;;;;;;3.13;1.80;;;;;;;8.85;95.04;100932.81;5142420;28;20126;-70
2023/05/05 00:21:10;;;;;;;4.55;2.08;;;;;;;8.91;93.32;100928.31;5124324;28;20405;-71
2023/05/05 00:23:41;;;;;;;3.65;2.30;;;;;;;8.75;95.59;100926.97;5114185;28;20560;-71
2023/05/05 00:26:11;;;;;;;4.10;2.05;;;;;;;9.04;93.60;100927.16;5115263;28;20046;-71
2023/05/05 00:28:41;;;;;;;8.38;2.47;;;;;;;8.91;95.15;100928.31;5121015;28;20105;-70
2023/05/05 00:31:14;;;;;;;4.47;2.10;;;;;;;8.78;94.00;100924.31;5126980;28;20069;-71
2023/05/05 00:33:44;;;;;;;7.30;2.67;;;;;;;8.74;95.84;100925.25;5125142;28;20384;-71
2023/05/05 00:36:15;;;;;;;4.32;2.47;;;;;;;8.85;96.02;100922.41;5141386;28;20030;-70
2023/05/05 00:38:45;;;;;;;3.33;2.20;;;;;;;8.99;93.97;100918.59;5127850;28;20081;-70
2023/05/05 00:41:15;;;;;;;4.50;2.35;;;;;;;8.90;95.27;100912.75;5127558;28;20082;-71
2023/05/05 00:43:46;;;;;;;4.82;2.38;;;;;;;8.96;95.10;100904.78;5125113;28;20038;-72
2023/05/05 00:46:24;;;;;;;5.97;2.63;;;;;;;9.16;94.01;100900.78;5119930;28;20142;-69
2023/05/05 00:48:55;;;;;;;4.72;2.97;;;;;;;9.25;92.69;100901.44;5121574;28;20050;-71
2023/05/05 00:51:27;;;;;;;5.75;2.80;;;;;;;9.37;92.58;100892.44;5125870;28;20057;-72
2023/05/05 00:53:57;;;;;;;6.03;2.70;;;;;;;9.63;91.58;100895.22;5123692;28;20035;-71
2023/05/05 00:56:27;;;;;;;8.75;2.85;;;;;;;9.68;90.68;100888.97;5124584;28;20110;-71
2023/05/05 00:58:58;;;;;;;6.47;2.45;;;;;;;9.72;89.98;100889.75;5123137;28;20497;-71
2023/05/05 01:01:28;;;;;;;8.25;2.55;;;;;;;9.71;90.01;100888.91;5126058;28;20396;-70
2023/05/05 01:03:58;;;;;;;8.95;3.03;;;;;;;9.69;90.27;100895.06;5120643;28;20042;-71
2023/05/05 01:06:33;;;;;;;7.90;2.88;;;;;;;9.71;90.14;100882.81;5129430;28;20035;-72
2023/05/05 01:09:38;;;;;;;9.77;3.22;;;;;;;9.72;89.70;100871.47;5126527;28;20033;-72
2023/05/05 01:12:30;;;;;;;5.97;3.22;;;;;;;9.83;88.23;100872.88;5125531;28;20023;-72
2023/05/05 01:15:20;;;;;;;7.72;2.88;;;;;;;9.90;87.46;100866.63;5124257;28;20034;-69
2023/05/05 01:18:10;;;;;;;6.45;2.97;;;;;;;9.92;87.33;100871.78;5123188;28;20023;-71
2023/05/05 01:20:54;;;;;;;5.10;2.67;;;;;;;9.91;87.06;100868.31;5128506;28;20114;-70
2023/05/05 01:23:46;;;;;;;7.10;2.67;;;;;;;9.97;87.85;100865.53;5126128;28;20019;-72
2023/05/05 01:26:41;;;;;;;6.00;2.75;;;;;;;9.95;86.55;100861.25;5127162;28;20067;-69
2023/05/05 01:29:37;;;;;;;6.43;2.83;;;;;;;9.78;87.75;100859.13;5125082;28;20038;-72
2023/05/05 01:32:13;;;;;;;6.75;2.97;;;;;;;9.65;89.04;100857.75;5128153;28;20054;-71
2023/05/05 01:34:52;;;;;;;5.32;2.70;;;;;;;9.62;88.83;100854.38;5124614;28;20082;-70
2023/05/05 01:37:29;;;;;;;9.88;3.05;;;;;;;9.53;89.17;100852.00;5126932;28;20023;-71
2023/05/05 01:40:04;;;;;;;4.82;2.88;;;;;;;9.61;89.16;100857.84;5124937;28;20030;-70
2023/05/05 01:42:40;;;;;;;8.32;3.80;;;;;;;9.56;88.96;100852.78;5126716;28;20012;-73
2023/05/05 01:45:11;;;;;;;9.80;3.13;;;;;;;9.64;88.52;100850.81;5125233;28;20123;-72
2023/05/05 01:47:43;;;;;;;7.25;2.85;;;;;;;9.59;88.74;100850.09;5126513;28;20023;-70
2023/05/05 01:50:14;;;;;;;5.80;2.80;;;;;;;9.49;89.30;100853.00;5127235;28;20057;-72
2023/05/05 01:52:46;;;;;;;6.43;3.22;;;;;;;9.69;88.62;100854.13;5125443;28;20114;-71
2023/05/05 01:55:18;;;;;;;6.50;2.90;;;;;;;9.58;88.94;100847.50;5142737;28;20058;-69
2023/05/05 01:57:49;;;;;;;7.38;3.05;;;;;;;9.45;89.25;100854.81;5126452;28;20099;-70
2023/05/05 02:00:21;;;;;;;8.25;3.15;;;;;;;9.49;89.30;100851.22;5128306;28;20054;-71
2023/05/05 02:02:55;;;;;;;7.68;3.03;;;;;;;9.43;89.74;100853.13;5139898;28;20527;-70
2023/05/05 02:05:27;;;;;;;15.98;3.22;;;;;;;9.49;89.12;100855.59;5129017;28;20476;-72
2023/05/05 02:07:59;;;;;;;6.45;2.72;;;;;;;9.47;89.73;100849.56;5141571;28;20578;-71
2023/05/05 02:10:30;;;;;;;6.60;2.80;;;;;;;9.50;89.24;100844.25;5128417;28;20030;-72
2023/05/05 02:13:04;;;;;;;8.15;3.00;;;;;;;9.44;88.94;100836.59;5122933;28;20173;-72
2023/05/05 02:15:36;;;;;;;9.80;3.10;;;;;;;9.51;89.08;100844.19;5129743;28;20023;-71
2023/05/05 02:18:07;;;;;;;4.75;2.90;;;;;;;9.63;88.12;100851.72;5124617;28;20021;-71
2023/05/05 02:20:39;;;;;;;9.43;2.92;;;;;;;9.59;88.39;100846.59;5124310;28;20105;-72
2023/05/05 02:23:09;;;;;;;6.50;2.50;;;;;;;9.65;88.13;100854.28;5127347;28;20473;-72
2023/05/05 02:25:42;;;;;;;7.95;3.10;;;;;;;9.65;87.59;100846.47;5124862;28;20035;-71
2023/05/05 02:28:20;;;;;;;10.75;2.90;;;;;;;9.63;87.78;100848.25;5125614;28;20042;-69
2023/05/05 02:30:56;;;;;;;6.25;2.50;;;;;;;9.71;88.09;100846.28;5126393;28;20393;-71
2023/05/05 02:33:31;;;;;;;8.43;3.35;;;;;;;9.82;87.24;100844.25;5125808;28;20027;-70
2023/05/05 02:36:08;;;;;;;3.50;2.50;;;;;;;9.89;87.00;100843.16;5126197;28;20053;-71
2023/05/05 02:38:41;;;;;;;6.72;2.65;;;;;;;9.89;87.24;100835.31;5121574;28;20034;-71
2023/05/05 02:41:16;;;;;;;12.60;3.63;;;;;;;9.83;88.21;100838.97;5116005;28;20094;-71
2023/05/05 02:43:48;;;;;;;7.22;2.75;;;;;;;9.95;86.12;100836.00;5123515;28;20027;-71
2023/05/05 02:46:19;;;;;;;12.68;2.85;;;;;;;9.92;86.56;100833.50;5128032;28;20501;-72
2023/05/05 02:48:49;;;;;;;5.03;2.72;;;;;;;9.95;86.99;100835.13;5139690;28;20030;-72
2023/05/05 02:51:19;;;;;;;5.07;2.83;;;;;;;9.96;86.69;100831.66;5144257;28;20027;-71
2023/05/05 02:53:51;;;;;;;6.35;2.95;;;;;;;9.98;86.13;100832.47;5142794;28;20092;-73
2023/05/05 02:56:38;;;;;;;6.95;2.83;;;;;;;9.93;87.51;100834.31;5125873;28;20243;-70
2023/05/05 02:59:20;;;;;;;9.07;2.67;;;;;;;9.93;87.03;100823.88;5121536;28;20444;-71
2023/05/05 03:02:08;;;;;;;5.43;2.38;;;;;;;9.81;86.57;100826.88;5126834;28;20326;-72
2023/05/05 03:04:45;;;;;;;6.30;2.75;;;;;;;9.68;86.19;100831.56;5118112;28;20038;-71
2023/05/05 03:07:29;;;;;;;5.63;2.80;;;;;;;9.30;89.62;100833.50;5127615;28;20030;-72
2023/05/05 03:10:09;;;;;;;7.57;3.00;;;;;;;9.19;92.06;100835.53;5124276;28;20019;-72
2023/05/05 03:12:52;;;;;;;4.07;2.60;;;;;;;9.12;91.27;100830.50;5119919;28;20030;-71
2023/05/05 03:15:30;;;;;;;6.13;2.55;;;;;;;9.16;91.90;100825.19;5124549;28;20512;-72
2023/05/05 03:18:02;;;;;;;4.95;2.78;;;;;;;9.28;91.28;100828.31;5122109;28;20432;-70
2023/05/05 03:20:33;;;;;;;5.70;2.42;;;;;;;9.40;90.07;100816.69;5141497;28;20400;-73
2023/05/05 03:23:04;;;;;;;8.65;3.08;;;;;;;9.34;90.68;100820.31;5124927;28;20027;-73
2023/05/05 03:25:45;;;;;;;4.93;2.55;;;;;;;9.21;87.55;100823.31;5140521;28;20474;-70
2023/05/05 03:28:16;;;;;;;4.85;2.50;;;;;;;9.29;87.69;100821.38;5122723;28;20038;-72
2023/05/05 03:30:47;;;;;;;4.38;2.10;;;;;;;9.18;87.90;100826.00;5126809;28;20098;-73
2023/05/05 03:33:18;;;;;;;3.90;2.40;;;;;;;8.74;90.50;100825.41;5124731;28;20503;-72
2023/05/05 03:35:48;;;;;;;6.90;2.80;;;;;;;8.86;90.61;100825.94;5127207;28;20027;-69
2023/05/05 03:38:18;;;;;;;3.80;2.45;;;;;;;8.76;89.57;100823.59;5124818;28;20026;-71
2023/05/05 03:40:49;;;;;;;3.92;2.55;;;;;;;8.51;91.66;100838.09;5125144;28;20035;-70
2023/05/05 03:43:19;;;;;;;7.00;2.80;;;;;;;8.37;91.19;100830.59;5125329;28;20035;-72
2023/05/05 03:45:49;;;;;;;3.65;2.38;;;;;;;8.40;91.48;100827.06;5123015;28;20066;-69
2023/05/05 03:48:19;;;;;;;5.57;2.95;;;;;;;8.34;92.82;100835.88;5123630;28;20481;-70
2023/05/05 03:50:50;;;;;;;5.15;2.55;;;;;;;8.12;93.86;100834.63;5139071;28;20281;-68
2023/05/05 03:53:20;;;;;;;9.00;2.67;;;;;;;8.22;94.70;100825.72;5123895;28;20034;-71
2023/05/05 03:55:51;;;;;;;6.85;3.20;;;;;;;8.19;95.91;100827.56;5123168;28;20029;-70
2023/05/05 03:58:21;;;;;;;6.47;2.80;;;;;;;8.38;95.61;100834.06;5125710;28;20050;-68
2023/05/05 04:00:51;;;;;;;6.50;2.90;;;;;;;8.22;96.14;100830.94;5136261;28;20042;-69
2023/05/05 04:03:22;;;;;;;6.38;3.08;;;;;;;8.21;97.03;100825.78;5126055;28;20027;-70
2023/05/05 04:05:52;;;;;;;6.05;2.80;;;;;;;8.31;96.78;100825.53;5108739;28;20117;-70
2023/05/05 04:08:23;;;;;;;6.57;2.92;;;;;;;8.34;96.76;100830.69;5124837;28;20911;-70
2023/05/05 04:10:53;;;;;;;7.15;2.50;;;;;;;8.36;95.24;100831.50;5125140;28;20129;-70
2023/05/05 04:13:23;;;;;;;5.45;2.67;;;;;;;8.49;94.15;100835.53;5126194;28;20117;-71
2023/05/05 04:15:54;;;;;;;6.43;2.50;;;;;;;8.59;94.20;100837.00;5124561;28;20078;-69
2023/05/05 04:18:24;;;;;;;6.07;2.60;;;;;;;8.53;93.73;100831.97;5119515;28;20481;-70
2023/05/05 04:20:55;;;;;;;4.85;2.63;;;;;;;8.51;95.12;100827.66;5125863;28;20109;-70
2023/05/05 04:23:25;;;;;;;9.10;3.28;;;;;;;8.47;96.16;100832.13;5123034;28;20695;-70
2023/05/05 04:25:56;;;;;;;4.72;2.58;;;;;;;8.51;97.10;100832.88;5140148;28;20093;-70
2023/05/05 04:28:26;;;;;;;8.68;2.88;;;;;;;8.36;97.09;100828.88;5125859;28;20496;-71
2023/05/05 04:30:58;;;;;;;6.35;2.58;;;;;;;8.56;96.78;100837.09;5139245;28;20042;-69
2023/05/05 04:33:28;;;;;;;8.05;2.83;;;;;;;8.68;94.29;100841.16;5141463;28;20089;-72
2023/05/05 04:35:58;;;;;;;9.88;3.45;;;;;;;8.56;96.12;100842.31;5126919;28;20425;-70
2023/05/05 04:38:29;;;;;;;5.72;2.83;;;;;;;8.62;96.51;100842.19;5124084;28;20034;-70
2023/05/05 04:40:59;;;;;;;4.80;2.50;;;;;;;8.77;95.61;100836.63;5127459;28;20035;-70
2023/05/05 04:43:29;;;;;;;3.75;2.33;;;;;;;8.61;95.17;100837.88;5123081;28;20036;-71
2023/05/05 04:46:00;;;;;;;8.45;2.67;;;;;;;8.51;97.22;100846.78;5121716;28;20030;-69
2023/05/05 04:48:30;;;;;;;5.07;2.50;;;;;;;8.94;95.39;100836.19;5125719;28;20023;-70
2023/05/05 04:51:05;;;;;;;8.93;2.80;;;;;;;8.78;95.82;100835.72;5124411;28;20062;-72
2023/05/05 04:53:35;;;;;;;7.20;2.88;;;;;;;8.77;93.60;100840.97;5120318;28;20035;-69
2023/05/05 04:56:05;;;;;;;4.72;2.72;;;;;;;9.37;93.43;100827.22;5118929;28;20086;-70
2023/05/05 04:58:36;;;;;;;4.68;2.63;;;;;;;10.23;87.21;100830.84;5139260;28;20027;-71
2023/05/05 05:01:06;;;;;;;8.50;2.80;;;;;;;10.42;89.27;100826.78;5117222;28;20030;-70
2023/05/05 05:03:36;;;;;;;5.82;2.50;;;;;;;11.04;85.41;100824.72;5125968;28;20126;-72
2023/05/05 05:06:07;;;;;;;4.95;2.35;;;;;;;10.61;85.03;100834.00;5132371;28;20034;-70
2023/05/05 05:08:37;;;;;;;4.32;2.55;;;;;;;11.40;81.49;100828.69;5121901;28;20027;-69
2023/05/05 05:11:07;;;;;;;3.90;2.08;;;;;;;13.69;79.35;100808.97;5123755;28;20046;-70
2023/05/05 05:13:38;;;;;;;6.03;2.50;;;;;;;14.47;70.19;100812.38;5115498;28;20030;-72
2023/05/05 05:16:08;;;;;;;4.32;2.10;;;;;;;15.06;68.51;100819.06;5115826;28;20405;-72
2023/05/05 05:18:38;;;;;;;3.67;2.00;;;;;;;15.88;68.36;100817.38;5120516;28;20046;-71
2023/05/05 05:21:09;;;;;;;4.30;2.20;;;;;;;18.69;62.15;100812.00;5120229;28;20042;-71
2023/05/05 05:23:39;;;;;;;3.47;2.13;;;;;;;18.03;59.72;100816.22;5126539;28;20278;-70
2023/05/05 05:26:09;;;;;;;4.13;1.77;;;;;;;21.09;56.42;100809.91;5122816;28;20183;-71
2023/05/05 05:28:40;;;;;;;4.53;2.13;;;;;;;20.63;54.24;100811.56;5126403;28;20031;-71
2023/05/05 05:31:10;;;;;;;4.75;1.85;;;;;;;21.94;54.70;100799.72;5122593;28;20030;-72
2023/05/05 05:33:41;;;;;;;3.95;1.65;;;;;;;20.25;55.46;100805.53;5140404;28;20041;-73
2023/05/05 05:36:11;;;;;;;4.97;1.73;;;;;;;22.43;50.98;100806.38;5122291;28;20246;-73
2023/05/05 05:38:41;;;;;;;4.80;2.17;;;;;;;22.63;51.73;100799.44;5124824;28;20270;-72
2023/05/05 05:41:12;;;;;;;4.37;1.70;;;;;;;23.48;49.92;100792.16;5122293;28;20285;-70
2023/05/05 05:43:42;;;;;;;10.15;3.40;;;;;;;23.58;49.94;100793.94;5123606;28;20278;-71
2023/05/05 05:46:12;;;;;;;8.27;2.10;;;;;;;23.27;50.79;100797.53;5124523;28;20453;-70
2023/05/05 05:48:42;;;;;;;6.93;2.63;;;;;;;21.93;53.29;100800.69;5124202;28;20282;-71
2023/05/05 05:51:13;;;;;;;6.97;2.08;;;;;;;22.88;52.00;100794.63;5123305;28;20642;-71
2023/05/05 05:53:43;;;;;;;4.50;2.10;;;;;;;20.19;56.14;100803.31;5128108;28;20644;-70
2023/05/05 05:56:13;;;;;;;4.93;2.15;;;;;;;20.99;56.44;100803.56;5127409;28;20023;-71
2023/05/05 05:58:44;;;;;;;7.07;2.27;;;;;;;20.63;56.42;100800.94;5128715;28;20019;-72
2023/05/05 06:01:14;;;;;;;5.10;2.40;;;;;;;19.78;57.67;100804.50;5122319;28;20279;-71
2023/05/05 06:03:45;;;;;;;5.28;2.22;;;;;;;18.75;59.37;100821.22;5143371;28;20449;-71
2023/05/05 06:06:15;;;;;;;9.00;2.33;;;;;;;16.63;64.23;100831.72;5126289;28;20166;-71
2023/05/05 06:08:46;;;;;;;7.80;2.58;;;;;;;15.15;68.40;100823.91;5123751;28;20094;-71
2023/05/05 06:11:16;;;;;;;5.25;2.53;;;;;;;15.78;68.29;100805.66;5128945;28;20619;-71
2023/05/05 06:13:46;;;;;;;5.10;2.65;;;;;;;16.27;67.40;100809.97;5128607;28;20117;-70
2023/05/05 06:16:16;;;;;;;4.53;2.30;;;;;;;17.33;64.22;100797.63;5141617;28;20042;-70
2023/05/05 06:18:47;;;;;;;7.57;2.50;;;;;;;17.91;64.33;100798.47;5125753;28;20022;-71
2023/05/05 06:21:19;;;;;;;3.97;2.22;;;;;;;17.92;63.98;100798.38;5128273;28;20184;-73
2023/05/05 06:23:49;;;;;;;5.50;2.47;;;;;;;18.22;63.60;100795.63;5128492;28;20039;-70
2023/05/05 06:26:20;;;;;;;7.75;2.35;;;;;;;18.58;61.37;100791.50;5126021;28;20028;-70
2023/05/05 06:28:50;;;;;;;5.10;2.80;;;;;;;18.60;61.30;100794.91;5125592;28;20074;-71
2023/05/05 06:31:21;;;;;;;6.53;2.70;;;;;;;18.93;60.92;100798.81;5125410;28;20454;-70
2023/05/05 06:33:51;;;;;;;4.85;2.30;;;;;;;19.33;59.14;100797.03;5126785;28;20042;-71
2023/05/05 06:36:21;;;;;;;5.63;2.30;;;;;;;20.06;57.95;100794.53;5126997;28;20030;-70
2023/05/05 06:38:52;;;;;;;4.40;2.17;;;;;;;19.59;57.64;100807.56;5127953;28;20357;-70
2023/05/05 06:41:22;;;;;;;8.45;3.13;;;;;;;21.53;55.38;100805.56;5130371;28;20612;-72
2023/05/05 06:43:53;;;;;;;5.88;2.15;;;;;;;21.18;55.30;100798.56;5129254;28;20038;-71
2023/05/05 06:46:23;;;;;;;9.20;2.10;;;;;;;21.39;53.59;100815.56;5127562;28;20682;-71
2023/05/05 06:48:56;;;;;;;5.60;2.20;;;;;;;23.06;52.11;100809.94;5125516;28;20365;-72
2023/05/05 06:51:26;;;;;;;4.72;2.17;;;;;;;24.08;50.69;100811.78;5124735;28;20094;-72
2023/05/05 06:53:57;;;;;;;5.90;2.20;;;;;;;23.72;50.51;100820.28;5124481;28;20378;-72
2023/05/05 06:56:27;;;;;;;4.32;2.20;;;;;;;24.73;49.04;100805.00;5127750;28;20274;-71
2023/05/05 06:58:57;;;;;;;7.15;2.33;;;;;;;25.54;47.43;100800.09;5125985;28;20405;-72
2023/05/05 07:01:28;;;;;;;5.17;2.20;;;;;;;22.75;51.61;100810.78;5138532;28;20408;-72
2023/05/05 07:03:58;;;;;;;4.83;2.30;;;;;;;22.79;52.82;100806.03;5127627;28;20457;-71
2023/05/05 07:06:28;;;;;;;3.80;2.00;;;;;;;24.32;49.04;100792.75;5128813;28;20731;-72
2023/05/05 07:08:59;;;;;;;4.95;2.20;;;;;;;22.71;51.72;100798.66;5120793;28;20512;-72
2023/05/05 07:11:29;;;;;;;4.50;2.33;;;;;;;23.53;50.91;100803.31;5143124;28;20481;-72
2023/05/05 07:13:59;;;;;;;3.50;2.20;;;;;;;25.15;48.90;100789.53;5124276;28;20306;-72
2023/05/05 07:16:29;;;;;;;8.48;2.25;;;;;;;23.52;51.13;100813.13;5124650;28;20293;-72
2023/05/05 07:19:00;;;;;;;7.77;2.63;;;;;;;24.22;49.88;100800.72;5126131;28;20114;-71
2023/05/05 07:21:33;;;;;;;7.55;2.63;;;;;;;23.63;50.99;100799.72;5145463;28;20340;-72
2023/05/05 07:24:03;;;;;;;4.68;2.10;;;;;;;24.06;51.35;100797.72;5141004;28;20042;-72
2023/05/05 07:26:34;;;;;;;4.57;2.50;;;;;;;21.83;54.13;100808.56;5130792;28;20453;-72
2023/05/05 07:29:05;;;;;;;4.78;2.28;;;;;;;22.69;53.92;100800.59;5124779;28;20042;-72
2023/05/05 07:31:36;;;;;;;14.98;2.50;;;;;;;23.26;52.54;100790.50;5128129;28;20571;-72
2023/05/05 07:34:06;;;;;;;7.80;2.77;;;;;;;23.72;52.89;100782.91;5119830;28;20031;-72
2023/05/05 07:36:36;;;;;;;8.45;2.42;;;;;;;22.45;54.75;100795.59;5129388;28;20288;-72
2023/05/05 07:39:07;;;;;;;12.70;3.78;;;;;;;22.48;57.76;100798.88;5137768;28;20113;-72
2023/05/05 07:41:37;;;;;;;6.35;2.78;;;;;;;22.32;55.75;100794.84;5145737;28;20117;-72
2023/05/05 07:44:07;;;;;;;5.60;2.17;;;;;;;22.09;54.89;100799.34;5124499;28;20101;-72
2023/05/05 07:46:38;;;;;;;4.13;2.53;;;;;;;22.09;53.98;100793.19;5119824;28;20034;-72
2023/05/05 07:49:08;;;;;;;5.78;2.58;;;;;;;21.60;54.89;100789.97;5123189;28;20035;-72
2023/05/05 07:51:38;;;;;;;5.95;2.40;;;;;;;21.97;56.41;100789.69;5127340;28;20512;-72
2023/05/05 07:54:10;;;;;;;5.95;2.60;;;;;;;23.58;53.14;100779.75;5123658;28;20041;-72
2023/05/05 07:56:40;;;;;;;9.27;2.75;;;;;;;23.39;54.46;100783.13;5131650;28;20023;-72
2023/05/05 07:59:11;;;;;;;9.95;2.38;;;;;;;23.08;56.07;100786.66;5123144;28;20030;-71
2023/05/05 08:01:41;;;;;;;4.15;2.60;;;;;;;21.57;56.01;100798.19;5127234;28;20030;-71
2023/05/05 08:04:11;;;;;;;8.67;2.77;;;;;;;21.01;58.07;100804.28;5128029;28;20027;-71
2023/05/05 08:06:41;;;;;;;6.33;2.43;;;;;;;20.69;59.55;100804.00;5143230;28;20681;-72
2023/05/05 08:09:12;;;;;;;4.53;2.43;;;;;;;21.48;57.62;100810.41;5122803;28;20361;-72
2023/05/05 08:11:42;;;;;;;5.70;2.70;;;;;;;21.13;58.16;100811.34;5124140;28;20313;-72
2023/05/05 08:14:13;;;;;;;5.23;2.53;;;;;;;21.53;57.12;100810.03;5125456;28;20089;-72
2023/05/05 08:16:44;;;;;;;5.28;2.75;;;;;;;21.31;57.73;100799.34;5122339;28;20329;-72
2023/05/05 08:19:16;;;;;;;5.70;2.63;;;;;;;21.52;57.18;100798.56;5120674;28;20505;-72
2023/05/05 08:21:46;;;;;;;8.30;2.85;;;;;;;21.90;56.50;100784.97;5119139;28;20026;-72
2023/05/05 08:24:17;;;;;;;5.03;2.80;;;;;;;21.39;57.31;100787.16;5129557;28;20056;-72
2023/05/05 08:26:48;;;;;;;6.30;2.88;;;;;;;21.39;57.56;100779.16;5124741;28;20297;-71
2023/05/05 08:29:18;;;;;;;7.50;2.90;;;;;;;21.54;56.85;100779.81;5123634;28;20027;-71
2023/05/05 08:31:48;;;;;;;5.68;3.10;;;;;;;20.55;59.84;100792.69;5126732;28;20031;-70
2023/05/05 08:34:18;;;;;;;7.70;2.60;;;;;;;22.90;55.32;100776.69;5123294;28;20039;-72
2023/05/05 08:36:49;;;;;;;7.93;3.20;;;;;;;22.62;55.18;100787.06;5125473;28;20645;-72
2023/05/05 08:39:20;;;;;;;8.52;2.78;;;;;;;22.87;54.70;100788.44;5141549;28;20508;-71
2023/05/05 08:41:50;;;;;;;7.40;2.95;;;;;;;22.71;55.87;100788.00;5126490;28;20488;-71
2023/05/05 08:44:20;;;;;;;5.67;2.63;;;;;;;22.45;55.42;100787.59;5124811;28;20074;-71
2023/05/05 08:46:52;;;;;;;3.42;2.38;;;;;;;23.71;54.37;100781.22;5128910;28;20756;-71
2023/05/05 08:49:24;;;;;;;6.85;2.50;;;;;;;25.18;51.86;100779.41;5120506;28;20355;-72
2023/05/05 08:51:54;;;;;;;8.20;2.63;;;;;;;25.20;50.35;100781.94;5127115;28;20129;-72
2023/05/05 08:54:29;;;;;;;4.55;2.78;;;;;;;25.70;49.92;100778.06;5126294;28;20102;-72
2023/05/05 08:57:00;;;;;;;7.70;3.30;;;;;;;22.94;54.09;100794.97;5127552;28;20030;-72
2023/05/05 08:59:31;;;;;;;6.05;3.08;;;;;;;22.94;54.58;100800.31;5129303;28;20109;-72
2023/05/05 09:02:03;;;;;;;5.80;2.95;;;;;;;22.59;54.10;100806.00;5123755;28;20458;-72
2023/05/05 09:04:33;;;;;;;8.15;3.33;;;;;;;23.83;52.79;100788.19;5123052;28;20026;-72
2023/05/05 09:07:03;;;;;;;6.50;3.42;;;;;;;24.51;53.08;100782.09;5125078;28;20486;-72
2023/05/05 09:09:34;;;;;;;6.90;3.10;;;;;;;24.16;52.39;100785.25;5143060;28;20464;-72
2023/05/05 09:12:05;;;;;;;5.65;2.85;;;;;;;24.20;53.60;100783.16;5126555;28;20039;-72
2023/05/05 09:14:35;;;;;;;4.55;2.60;;;;;;;23.62;53.96;100774.00;5126296;28;20023;-72
2023/05/05 09:17:05;;;;;;;5.45;3.35;;;;;;;22.69;56.45;100787.28;5128894;28;20081;-72
2023/05/05 09:20:00;;;;;;;9.90;3.20;;;;;;;21.93;56.66;100784.72;5127043;28;20031;-72
2023/05/05 09:22:32;;;;;;;5.32;2.90;;;;;;;21.99;58.13;100782.41;5125784;28;20047;-72
2023/05/05 09:25:03;;;;;;;5.72;3.30;;;;;;;21.92;56.43;100791.00;5140515;28;20029;-72
2023/05/05 09:27:35;;;;;;;6.13;2.80;;;;;;;21.88;57.42;100789.56;5125713;28;20444;-72
2023/05/05 09:30:07;;;;;;;5.47;2.67;;;;;;;21.68;56.63;100792.91;5128634;28;20485;-72
2023/05/05 09:32:48;;;;;;;5.90;3.30;;;;;;;22.20;55.55;100785.16;5125389;28;20035;-72
2023/05/05 09:35:19;;;;;;;5.70;2.67;;;;;;;21.76;58.31;100795.84;5120741;28;20027;-71
2023/05/05 09:37:50;;;;;;;5.63;2.80;;;;;;;21.70;58.19;100799.81;5117950;28;20031;-71
2023/05/05 09:40:20;;;;;;;6.53;2.90;;;;;;;21.38;58.81;100803.25;5117452;28;20019;-71
2023/05/05 09:43:00;;;;;;;4.90;2.63;;;;;;;21.83;58.60;100800.56;5118288;28;20370;-71
2023/05/05 09:45:30;;;;;;;6.70;2.67;;;;;;;21.92;57.47;100796.34;5121088;28;20023;-71
2023/05/05 09:48:01;;;;;;;5.43;3.10;;;;;;;22.06;56.97;100791.59;5115525;28;20034;-70
2023/05/05 09:50:42;;;;;;;4.90;2.58;;;;;;;21.84;56.66;100798.72;5136175;28;20038;-71
2023/05/05 09:53:13;;;;;;;5.35;2.90;;;;;;;21.64;55.74;100800.31;5136709;28;20035;-71
2023/05/05 09:55:59;;;;;;;5.20;2.40;;;;;;;21.93;58.50;100803.34;5119433;28;20078;-72
2023/05/05 09:58:30;;;;;;;6.10;2.65;;;;;;;21.91;58.15;100799.97;5118580;28;20034;-71
2023/05/05 10:01:00;;;;;;;4.85;2.55;;;;;;;21.76;57.38;100795.84;5120814;28;20022;-72
2023/05/05 10:03:30;;;;;;;6.97;2.83;;;;;;;22.12;60.19;100798.25;5122783;28;20058;-71
2023/05/05 10:06:03;;;;;;;4.20;2.30;;;;;;;22.08;57.08;100788.84;5119881;28;20576;-71
2023/05/05 10:08:33;;;;;;;6.28;3.00;;;;;;;22.19;55.68;100791.47;5120854;28;20074;-73
2023/05/05 10:11:05;;;;;;;4.83;2.50;;;;;;;22.08;57.77;100796.81;5123492;28;20022;-72
2023/05/05 10:13:38;;;;;;;5.43;2.90;;;;;;;21.81;56.41;100788.34;5122389;28;20279;-71
2023/05/05 10:16:11;;;;;;;4.28;2.65;;;;;;;22.36;57.12;100786.50;5120945;28;20034;-73
2023/05/05 10:18:45;;;;;;;4.70;2.50;;;;;;;22.66;58.64;100784.03;5117476;28;20028;-72
2023/05/05 10:21:19;;;;;;;6.43;2.80;;;;;;;23.00;56.83;100777.63;5138360;28;20106;-72
2023/05/05 10:24:44;;;;;;;4.45;2.63;;;;;;;22.72;54.34;100778.19;5114586;28;20040;-71
2023/05/05 10:27:19;;;;;;;10.50;2.88;;;;;;;22.23;56.42;100790.28;5119783;28;20074;-71
2023/05/05 10:30:12;;;;;;;6.53;2.63;;;;;;;22.04;55.80;100784.69;5117776;28;20067;-72
2023/05/05 10:32:47;;;;;;;5.00;2.60;;;;;;;21.90;54.85;100782.31;5119625;28;20027;-72
2023/05/05 10:35:22;;;;;;;5.45;2.58;;;;;;;22.29;54.67;100774.63;5119997;28;20532;-72
2023/05/05 10:37:53;;;;;;;5.13;2.28;;;;;;;22.13;56.36;100773.31;5121165;28;20037;-71
2023/05/05 10:40:24;;;;;;;4.85;2.60;;;;;;;22.68;56.93;100772.28;5119966;28;20042;-72
2023/05/05 10:42:55;;;;;;;6.60;2.63;;;;;;;22.41;59.65;100776.34;5116685;28;20027;-72
2023/05/05 10:45:25;;;;;;;6.57;2.70;;;;;;;22.66;56.89;100769.84;5122146;28;20035;-72
2023/05/05 10:47:59;;;;;;;4.82;2.55;;;;;;;22.56;58.54;100779.59;5118889;28;20246;-73
2023/05/05 10:50:37;;;;;;;6.50;2.72;;;;;;;22.49;58.66;100786.38;5118447;28;20484;-73
2023/05/05 10:53:19;;;;;;;5.70;2.75;;;;;;;22.62;56.16;100787.06;5121825;28;20049;-73
2023/05/05 10:56:00;;;;;;;4.63;2.30;;;;;;;22.41;60.77;100788.84;5121823;28;20033;-72
2023/05/05 10:58:36;;;;;;;8.95;2.80;;;;;;;22.37;58.54;100797.97;5118861;28;20131;-72
2023/05/05 11:01:06;;;;;;;10.30;4.03;;;;;;;22.14;61.00;100791.00;5124068;28;20532;-71
2023/05/05 11:03:37;;;;;;;5.53;2.47;;;;;;;21.94;60.12;100783.75;5119431;28;20169;-72
2023/05/05 11:06:08;;;;;;;5.45;2.22;;;;;;;21.94;63.16;100779.25;5117674;28;20041;-73
2023/05/05 11:08:40;;;;;;;4.93;2.20;;;;;;;21.78;62.99;100783.25;5116636;28;20032;-71
2023/05/05 11:11:11;;;;;;;5.18;2.08;;;;;;;21.31;62.92;100776.25;5122925;28;20038;-73
2023/05/05 11:13:42;;;;;;;5.78;2.50;;;;;;;20.93;64.20;100767.66;5124032;28;20437;-72
2023/05/05 11:16:46;;;;;;;5.03;2.07;;;;;;;20.61;64.52;100768.34;5138673;28;20038;-72
2023/05/05 11:19:43;;;;;;;4.82;2.53;;;;;;;20.15;65.72;100764.66;5142711;28;20287;-71
2023/05/05 11:22:14;;;;;;;;;;;;;;;19.87;64.93;100762.25;5118015;28;20067;-71
2023/05/05 11:24:45;;;;;;;5.22;2.00;;;;;;;19.70;67.29;100762.59;5114081;28;20438;-72
2023/05/05 11:27:15;;;;;;;5.30;2.28;;;;;;;19.53;67.83;100749.66;5118694;28;20031;-70
2023/05/05 11:30:05;;;;;;;5.55;2.40;;;;;;;19.44;68.85;100746.78;5119760;28;20045;-73
2023/05/05 11:32:36;;;;;;;8.50;2.80;;;;;;;19.29;71.15;100748.69;5117577;28;20027;-72
2023/05/05 11:35:06;;;;;;;7.25;2.55;;;;;;;19.40;71.15;100745.28;5120556;28;20089;-72
2023/05/05 11:37:37;;;;;;;4.80;2.25;;;;;;;19.46;72.19;100750.19;5122684;28;20109;-73
2023/05/05 11:40:20;;;;;;;4.78;2.45;;;;;;;19.42;71.39;100744.25;5116341;28;20034;-73
2023/05/05 11:43:03;;;;;;;5.72;2.65;;;;;;;19.38;72.61;100747.19;5118527;28;20036;-72
2023/05/05 11:45:34;;;;;;;4.43;2.78;;;;;;;19.33;71.40;100757.28;5118012;28;20493;-70
2023/05/05 11:48:23;;;;;;;5.65;2.67;;;;;;;19.39;71.83;100757.72;5123562;28;20035;-70
2023/05/05 11:50:53;;;;;;;5.40;2.65;;;;;;;19.46;70.05;100758.13;5115503;28;20027;-71
2023/05/05 11:53:23;;;;;;;6.68;2.30;;;;;;;19.47;69.79;100760.66;5118371;28;20026;-71
2023/05/05 11:56:10;;;;;;;7.97;2.85;;;;;;;19.43;72.22;100761.00;5122851;28;20031;-70